sensor_id;sensor_type;location;lat;lon;timestamp;P1;durP1;ratioP1;P2;durP2;ratioP2
20458;SDS011;10388;52.314;7.938;2024-02-26T00:00:56;2.80;;;2.53;;
20458;SDS011;10388;52.314;7.938;2024-02-26T00:03:27;3.73;;;3.30;;
20458;SDS011;10388;52.314;7.938;2024-02-26T00:05:58;2.87;;;2.67;;
20458;SDS011;10388;52.314;7.938;2024-02-26T00:08:29;3.43;;;3.13;;
20458;SDS011;10388;52.314;7.938;2024-02-26T00:10:59;3.17;;;2.60;;
20458;SDS011;10388;52.314;7.938;2024-02-26T00:13:30;4.33;;;2.90;;
20458;SDS011;10388;52.314;7.938;2024-02-26T00:16:00;3.60;;;2.73;;
20458;SDS011;10388;52.314;7.938;2024-02-26T00:18:31;2.93;;;2.60;;
20458;SDS011;10388;52.314;7.938;2024-02-26T00:21:02;2.93;;;2.73;;
20458;SDS011;10388;52.314;7.938;2024-02-26T00:23:32;3.00;;;2.70;;
20458;SDS011;10388;52.314;7.938;2024-02-26T00:26:03;3.47;;;3.07;;
20458;SDS011;10388;52.314;7.938;2024-02-26T00:28:34;2.87;;;2.63;;
20458;SDS011;10388;52.314;7.938;2024-02-26T00:31:04;3.23;;;2.93;;
20458;SDS011;10388;52.314;7.938;2024-02-26T00:33:35;3.87;;;3.20;;
20458;SDS011;10388;52.314;7.938;2024-02-26T00:36:05;3.67;;;3.03;;
20458;SDS011;10388;52.314;7.938;2024-02-26T00:38:36;4.03;;;3.13;;
20458;SDS011;10388;52.314;7.938;2024-02-26T00:41:07;3.10;;;2.80;;
20458;SDS011;10388;52.314;7.938;2024-02-26T00:43:37;3.27;;;2.97;;
20458;SDS011;10388;52.314;7.938;2024-02-26T00:46:10;3.37;;;3.07;;
20458;SDS011;10388;52.314;7.938;2024-02-26T00:48:40;3.90;;;3.30;;
20458;SDS011;10388;52.314;7.938;2024-02-26T00:51:11;4.87;;;3.10;;
20458;SDS011;10388;52.314;7.938;2024-02-26T00:53:42;4.27;;;3.50;;
20458;SDS011;10388;52.314;7.938;2024-02-26T00:56:12;4.73;;;3.10;;
20458;SDS011;10388;52.314;7.938;2024-02-26T00:58:43;4.90;;;3.70;;
20458;SDS011;10388;52.314;7.938;2024-02-26T01:01:13;3.80;;;3.50;;
20458;SDS011;10388;52.314;7.938;2024-02-26T01:03:44;4.30;;;3.90;;
20458;SDS011;10388;52.314;7.938;2024-02-26T01:06:14;4.17;;;3.60;;
20458;SDS011;10388;52.314;7.938;2024-02-26T01:08:45;4.37;;;3.80;;
20458;SDS011;10388;52.314;7.938;2024-02-26T01:11:16;4.87;;;3.90;;
20458;SDS011;10388;52.314;7.938;2024-02-26T01:13:46;4.20;;;3.80;;
20458;SDS011;10388;52.314;7.938;2024-02-26T01:16:17;4.03;;;3.63;;
20458;SDS011;10388;52.314;7.938;2024-02-26T01:18:47;3.50;;;3.20;;
20458;SDS011;10388;52.314;7.938;2024-02-26T01:21:18;4.20;;;3.80;;
20458;SDS011;10388;52.314;7.938;2024-02-26T01:23:49;4.00;;;3.43;;
20458;SDS011;10388;52.314;7.938;2024-02-26T01:26:19;3.47;;;3.10;;
20458;SDS011;10388;52.314;7.938;2024-02-26T01:28:51;4.70;;;3.40;;
20458;SDS011;10388;52.314;7.938;2024-02-26T01:44:49;3.80;;;3.40;;
20458;SDS011;10388;52.314;7.938;2024-02-26T01:47:22;3.87;;;3.47;;
20458;SDS011;10388;52.314;7.938;2024-02-26T01:50:09;5.13;;;3.40;;
20458;SDS011;10388;52.314;7.938;2024-02-26T01:53:04;3.97;;;3.57;;
20458;SDS011;10388;52.314;7.938;2024-02-26T01:55:37;4.17;;;3.60;;
20458;SDS011;10388;52.314;7.938;2024-02-26T01:58:20;4.37;;;3.57;;
20458;SDS011;10388;52.314;7.938;2024-02-26T02:00:56;5.40;;;3.97;;
20458;SDS011;10388;52.314;7.938;2024-02-26T02:03:31;3.87;;;3.50;;
20458;SDS011;10388;52.314;7.938;2024-02-26T02:09:09;4.20;;;3.80;;
20458;SDS011;10388;52.314;7.938;2024-02-26T02:11:40;4.17;;;3.77;;
20458;SDS011;10388;52.314;7.938;2024-02-26T02:14:23;3.90;;;3.60;;
20458;SDS011;10388;52.314;7.938;2024-02-26T02:17:04;4.63;;;3.60;;
20458;SDS011;10388;52.314;7.938;2024-02-26T02:25:00;3.50;;;3.13;;
20458;SDS011;10388;52.314;7.938;2024-02-26T02:27:52;3.73;;;3.43;;
20458;SDS011;10388;52.314;7.938;2024-02-26T02:30:37;3.97;;;3.13;;
20458;SDS011;10388;52.314;7.938;2024-02-26T02:33:13;3.70;;;3.30;;
20458;SDS011;10388;52.314;7.938;2024-02-26T02:35:50;3.33;;;3.03;;
20458;SDS011;10388;52.314;7.938;2024-02-26T02:38:32;5.10;;;3.70;;
20458;SDS011;10388;52.314;7.938;2024-02-26T02:44:29;7.87;;;3.47;;
20458;SDS011;10388;52.314;7.938;2024-02-26T02:47:00;3.47;;;3.17;;
20458;SDS011;10388;52.314;7.938;2024-02-26T02:49:41;3.23;;;2.93;;
20458;SDS011;10388;52.314;7.938;2024-02-26T02:52:22;3.53;;;3.20;;
20458;SDS011;10388;52.314;7.938;2024-02-26T02:55:11;3.83;;;2.93;;
20458;SDS011;10388;52.314;7.938;2024-02-26T02:57:42;4.80;;;3.10;;
20458;SDS011;10388;52.314;7.938;2024-02-26T03:00:30;5.53;;;2.90;;
20458;SDS011;10388;52.314;7.938;2024-02-26T03:03:17;3.23;;;2.93;;
20458;SDS011;10388;52.314;7.938;2024-02-26T03:05:55;3.57;;;3.27;;
20458;SDS011;10388;52.314;7.938;2024-02-26T03:08:43;4.07;;;2.90;;
20458;SDS011;10388;52.314;7.938;2024-02-26T03:11:15;3.90;;;2.83;;
20458;SDS011;10388;52.314;7.938;2024-02-26T03:13:49;3.17;;;2.87;;
20458;SDS011;10388;52.314;7.938;2024-02-26T03:16:27;2.80;;;2.60;;
20458;SDS011;10388;52.314;7.938;2024-02-26T03:22:16;2.73;;;2.53;;
20458;SDS011;10388;52.314;7.938;2024-02-26T03:24:58;2.63;;;2.43;;
20458;SDS011;10388;52.314;7.938;2024-02-26T03:27:48;2.63;;;2.43;;
20458;SDS011;10388;52.314;7.938;2024-02-26T03:30:23;2.30;;;2.10;;
20458;SDS011;10388;52.314;7.938;2024-02-26T03:33:00;2.70;;;2.50;;
20458;SDS011;10388;52.314;7.938;2024-02-26T03:35:33;2.47;;;2.27;;
20458;SDS011;10388;52.314;7.938;2024-02-26T03:44:11;2.70;;;2.50;;
20458;SDS011;10388;52.314;7.938;2024-02-26T03:46:45;3.40;;;2.40;;
20458;SDS011;10388;52.314;7.938;2024-02-26T03:52:02;2.73;;;2.53;;
20458;SDS011;10388;52.314;7.938;2024-02-26T03:54:36;2.47;;;2.27;;
20458;SDS011;10388;52.314;7.938;2024-02-26T03:57:07;2.30;;;2.10;;
20458;SDS011;10388;52.314;7.938;2024-02-26T03:59:37;2.23;;;2.03;;
20458;SDS011;10388;52.314;7.938;2024-02-26T04:02:09;2.50;;;2.30;;
20458;SDS011;10388;52.314;7.938;2024-02-26T04:04:40;2.10;;;1.93;;
20458;SDS011;10388;52.314;7.938;2024-02-26T04:07:10;2.60;;;2.40;;
20458;SDS011;10388;52.314;7.938;2024-02-26T04:09:42;3.23;;;2.30;;
20458;SDS011;10388;52.314;7.938;2024-02-26T04:12:16;2.40;;;2.20;;
20458;SDS011;10388;52.314;7.938;2024-02-26T04:14:46;2.50;;;2.30;;
20458;SDS011;10388;52.314;7.938;2024-02-26T04:17:17;2.50;;;2.30;;
20458;SDS011;10388;52.314;7.938;2024-02-26T04:19:48;2.90;;;2.40;;
20458;SDS011;10388;52.314;7.938;2024-02-26T04:22:18;5.73;;;2.77;;
20458;SDS011;10388;52.314;7.938;2024-02-26T04:24:49;2.93;;;2.40;;
20458;SDS011;10388;52.314;7.938;2024-02-26T04:27:19;2.80;;;2.60;;
20458;SDS011;10388;52.314;7.938;2024-02-26T04:29:50;3.10;;;2.80;;
20458;SDS011;10388;52.314;7.938;2024-02-26T04:32:21;2.70;;;2.50;;
20458;SDS011;10388;52.314;7.938;2024-02-26T04:34:51;2.33;;;2.13;;
20458;SDS011;10388;52.314;7.938;2024-02-26T04:37:22;3.00;;;2.80;;
20458;SDS011;10388;52.314;7.938;2024-02-26T04:39:56;3.00;;;2.70;;
20458;SDS011;10388;52.314;7.938;2024-02-26T04:42:29;2.93;;;2.67;;
20458;SDS011;10388;52.314;7.938;2024-02-26T04:45:00;2.80;;;2.60;;
20458;SDS011;10388;52.314;7.938;2024-02-26T04:47:31;2.73;;;2.53;;
20458;SDS011;10388;52.314;7.938;2024-02-26T04:50:04;2.60;;;2.40;;
20458;SDS011;10388;52.314;7.938;2024-02-26T04:52:36;2.73;;;2.53;;
20458;SDS011;10388;52.314;7.938;2024-02-26T04:58:16;4.17;;;3.77;;
20458;SDS011;10388;52.314;7.938;2024-02-26T05:00:49;9.67;;;5.67;;
20458;SDS011;10388;52.314;7.938;2024-02-26T05:03:20;5.67;;;5.03;;
20458;SDS011;10388;52.314;7.938;2024-02-26T05:05:51;8.10;;;7.00;;
20458;SDS011;10388;52.314;7.938;2024-02-26T05:08:22;5.30;;;4.57;;
20458;SDS011;10388;52.314;7.938;2024-02-26T05:10:52;5.30;;;4.80;;
20458;SDS011;10388;52.314;7.938;2024-02-26T05:13:23;4.70;;;3.70;;
20458;SDS011;10388;52.314;7.938;2024-02-26T05:15:54;4.20;;;3.80;;
20458;SDS011;10388;52.314;7.938;2024-02-26T05:18:28;3.90;;;3.50;;
20458;SDS011;10388;52.314;7.938;2024-02-26T05:20:58;3.90;;;3.50;;
20458;SDS011;10388;52.314;7.938;2024-02-26T05:23:29;3.83;;;3.50;;
20458;SDS011;10388;52.314;7.938;2024-02-26T05:26:00;3.80;;;3.20;;
20458;SDS011;10388;52.314;7.938;2024-02-26T05:28:31;4.17;;;3.77;;
20458;SDS011;10388;52.314;7.938;2024-02-26T05:31:01;6.00;;;5.20;;
20458;SDS011;10388;52.314;7.938;2024-02-26T05:33:33;4.77;;;4.37;;
20458;SDS011;10388;52.314;7.938;2024-02-26T05:36:04;5.30;;;4.73;;
20458;SDS011;10388;52.314;7.938;2024-02-26T05:38:35;4.47;;;4.07;;
20458;SDS011;10388;52.314;7.938;2024-02-26T05:41:08;4.40;;;4.00;;
20458;SDS011;10388;52.314;7.938;2024-02-26T05:43:39;4.03;;;3.73;;
20458;SDS011;10388;52.314;7.938;2024-02-26T05:46:09;4.20;;;3.90;;
20458;SDS011;10388;52.314;7.938;2024-02-26T05:48:40;4.27;;;3.87;;
20458;SDS011;10388;52.314;7.938;2024-02-26T05:51:11;4.50;;;4.10;;
20458;SDS011;10388;52.314;7.938;2024-02-26T05:53:42;4.73;;;4.27;;
20458;SDS011;10388;52.314;7.938;2024-02-26T05:56:13;4.40;;;4.00;;
20458;SDS011;10388;52.314;7.938;2024-02-26T05:58:56;3.70;;;3.40;;
20458;SDS011;10388;52.314;7.938;2024-02-26T06:01:32;4.30;;;3.90;;
20458;SDS011;10388;52.314;7.938;2024-02-26T06:04:06;4.47;;;4.07;;
20458;SDS011;10388;52.314;7.938;2024-02-26T06:06:37;4.23;;;3.80;;
20458;SDS011;10388;52.314;7.938;2024-02-26T06:09:10;4.30;;;3.90;;
20458;SDS011;10388;52.314;7.938;2024-02-26T06:11:41;4.40;;;4.00;;
20458;SDS011;10388;52.314;7.938;2024-02-26T06:14:12;4.83;;;3.37;;
20458;SDS011;10388;52.314;7.938;2024-02-26T06:16:44;4.03;;;3.63;;
20458;SDS011;10388;52.314;7.938;2024-02-26T06:19:15;6.07;;;4.27;;
20458;SDS011;10388;52.314;7.938;2024-02-26T06:21:48;3.80;;;3.50;;
20458;SDS011;10388;52.314;7.938;2024-02-26T06:24:21;3.80;;;3.50;;
20458;SDS011;10388;52.314;7.938;2024-02-26T06:26:58;3.60;;;3.30;;
20458;SDS011;10388;52.314;7.938;2024-02-26T06:29:29;4.17;;;3.80;;
20458;SDS011;10388;52.314;7.938;2024-02-26T06:32:00;3.97;;;3.67;;
20458;SDS011;10388;52.314;7.938;2024-02-26T06:34:30;4.47;;;4.07;;
20458;SDS011;10388;52.314;7.938;2024-02-26T06:37:01;4.13;;;3.83;;
20458;SDS011;10388;52.314;7.938;2024-02-26T06:39:33;4.83;;;4.07;;
20458;SDS011;10388;52.314;7.938;2024-02-26T06:42:04;4.73;;;4.20;;
20458;SDS011;10388;52.314;7.938;2024-02-26T06:44:35;4.40;;;4.00;;
20458;SDS011;10388;52.314;7.938;2024-02-26T06:47:06;5.93;;;3.97;;
20458;SDS011;10388;52.314;7.938;2024-02-26T06:49:36;4.30;;;3.90;;
20458;SDS011;10388;52.314;7.938;2024-02-26T06:52:08;5.47;;;3.80;;
20458;SDS011;10388;52.314;7.938;2024-02-26T06:54:39;6.20;;;3.90;;
20458;SDS011;10388;52.314;7.938;2024-02-26T06:57:09;4.27;;;3.87;;
20458;SDS011;10388;52.314;7.938;2024-02-26T06:59:40;4.60;;;4.10;;
20458;SDS011;10388;52.314;7.938;2024-02-26T07:02:16;4.53;;;3.70;;
20458;SDS011;10388;52.314;7.938;2024-02-26T07:04:46;4.37;;;3.97;;
20458;SDS011;10388;52.314;7.938;2024-02-26T07:07:17;4.40;;;4.00;;
20458;SDS011;10388;52.314;7.938;2024-02-26T07:09:48;4.37;;;3.97;;
20458;SDS011;10388;52.314;7.938;2024-02-26T07:12:19;10.27;;;9.17;;
20458;SDS011;10388;52.314;7.938;2024-02-26T07:14:51;6.10;;;5.27;;
20458;SDS011;10388;52.314;7.938;2024-02-26T07:17:25;7.37;;;4.80;;
20458;SDS011;10388;52.314;7.938;2024-02-26T07:19:55;4.90;;;4.43;;
20458;SDS011;10388;52.314;7.938;2024-02-26T07:22:26;4.23;;;3.83;;
20458;SDS011;10388;52.314;7.938;2024-02-26T07:24:57;4.67;;;4.27;;
20458;SDS011;10388;52.314;7.938;2024-02-26T07:27:28;5.33;;;4.20;;
20458;SDS011;10388;52.314;7.938;2024-02-26T07:29:58;4.73;;;3.97;;
20458;SDS011;10388;52.314;7.938;2024-02-26T07:32:29;4.07;;;3.33;;
20458;SDS011;10388;52.314;7.938;2024-02-26T07:35:06;3.50;;;3.20;;
20458;SDS011;10388;52.314;7.938;2024-02-26T07:37:36;2.90;;;2.70;;
20458;SDS011;10388;52.314;7.938;2024-02-26T07:40:08;3.30;;;3.00;;
20458;SDS011;10388;52.314;7.938;2024-02-26T07:42:42;3.63;;;2.93;;
20458;SDS011;10388;52.314;7.938;2024-02-26T07:45:12;2.77;;;2.57;;
20458;SDS011;10388;52.314;7.938;2024-02-26T07:47:46;2.87;;;2.67;;
20458;SDS011;10388;52.314;7.938;2024-02-26T07:50:17;2.70;;;2.50;;
20458;SDS011;10388;52.314;7.938;2024-02-26T07:52:50;2.83;;;2.33;;
20458;SDS011;10388;52.314;7.938;2024-02-26T07:55:23;3.03;;;2.27;;
20458;SDS011;10388;52.314;7.938;2024-02-26T07:57:53;3.47;;;2.70;;
20458;SDS011;10388;52.314;7.938;2024-02-26T08:00:24;3.80;;;2.30;;
20458;SDS011;10388;52.314;7.938;2024-02-26T08:02:55;3.50;;;2.40;;
20458;SDS011;10388;52.314;7.938;2024-02-26T08:05:25;2.80;;;2.60;;
20458;SDS011;10388;52.314;7.938;2024-02-26T08:07:56;6.60;;;2.73;;
20458;SDS011;10388;52.314;7.938;2024-02-26T08:10:27;3.60;;;2.43;;
20458;SDS011;10388;52.314;7.938;2024-02-26T08:12:57;2.83;;;2.63;;
20458;SDS011;10388;52.314;7.938;2024-02-26T08:15:35;2.77;;;2.57;;
20458;SDS011;10388;52.314;7.938;2024-02-26T08:18:07;2.87;;;2.63;;
20458;SDS011;10388;52.314;7.938;2024-02-26T08:20:38;2.50;;;2.30;;
20458;SDS011;10388;52.314;7.938;2024-02-26T08:23:08;2.47;;;2.27;;
20458;SDS011;10388;52.314;7.938;2024-02-26T08:25:39;2.50;;;2.30;;
20458;SDS011;10388;52.314;7.938;2024-02-26T08:28:10;2.50;;;2.30;;
20458;SDS011;10388;52.314;7.938;2024-02-26T08:30:44;2.77;;;2.47;;
20458;SDS011;10388;52.314;7.938;2024-02-26T08:33:14;2.23;;;2.03;;
20458;SDS011;10388;52.314;7.938;2024-02-26T08:35:45;2.50;;;2.30;;
20458;SDS011;10388;52.314;7.938;2024-02-26T08:38:15;2.90;;;2.60;;
20458;SDS011;10388;52.314;7.938;2024-02-26T08:40:46;3.07;;;2.77;;
20458;SDS011;10388;52.314;7.938;2024-02-26T08:43:16;3.30;;;3.00;;
20458;SDS011;10388;52.314;7.938;2024-02-26T08:45:49;3.43;;;2.63;;
20458;SDS011;10388;52.314;7.938;2024-02-26T08:48:19;2.80;;;2.60;;
20458;SDS011;10388;52.314;7.938;2024-02-26T08:50:50;3.17;;;2.87;;
20458;SDS011;10388;52.314;7.938;2024-02-26T08:53:20;3.27;;;2.50;;
20458;SDS011;10388;52.314;7.938;2024-02-26T08:55:51;2.87;;;2.57;;
20458;SDS011;10388;52.314;7.938;2024-02-26T08:58:22;3.40;;;2.70;;
20458;SDS011;10388;52.314;7.938;2024-02-26T09:00:52;2.90;;;2.60;;
20458;SDS011;10388;52.314;7.938;2024-02-26T09:03:23;3.07;;;2.87;;
20458;SDS011;10388;52.314;7.938;2024-02-26T09:05:54;3.00;;;2.70;;
20458;SDS011;10388;52.314;7.938;2024-02-26T09:08:24;3.30;;;3.00;;
20458;SDS011;10388;52.314;7.938;2024-02-26T09:10:55;3.20;;;2.90;;
20458;SDS011;10388;52.314;7.938;2024-02-26T09:13:25;4.43;;;3.07;;
20458;SDS011;10388;52.314;7.938;2024-02-26T09:15:56;3.47;;;3.10;;
20458;SDS011;10388;52.314;7.938;2024-02-26T09:18:26;3.07;;;2.77;;
20458;SDS011;10388;52.314;7.938;2024-02-26T09:20:58;4.83;;;3.27;;
20458;SDS011;10388;52.314;7.938;2024-02-26T09:23:29;3.13;;;2.83;;
20458;SDS011;10388;52.314;7.938;2024-02-26T09:25:59;2.63;;;2.43;;
20458;SDS011;10388;52.314;7.938;2024-02-26T09:28:30;3.07;;;2.77;;
20458;SDS011;10388;52.314;7.938;2024-02-26T09:31:04;4.40;;;2.53;;
20458;SDS011;10388;52.314;7.938;2024-02-26T09:33:36;2.87;;;2.67;;
20458;SDS011;10388;52.314;7.938;2024-02-26T09:36:07;2.97;;;2.70;;
20458;SDS011;10388;52.314;7.938;2024-02-26T09:38:39;2.80;;;2.60;;
20458;SDS011;10388;52.314;7.938;2024-02-26T09:41:13;3.20;;;2.40;;
20458;SDS011;10388;52.314;7.938;2024-02-26T09:43:45;2.77;;;2.53;;
20458;SDS011;10388;52.314;7.938;2024-02-26T09:46:16;2.77;;;2.43;;
20458;SDS011;10388;52.314;7.938;2024-02-26T09:48:50;3.40;;;3.10;;
20458;SDS011;10388;52.314;7.938;2024-02-26T09:51:22;3.63;;;2.53;;
20458;SDS011;10388;52.314;7.938;2024-02-26T09:53:55;3.17;;;2.87;;
20458;SDS011;10388;52.314;7.938;2024-02-26T09:56:28;3.10;;;2.80;;
20458;SDS011;10388;52.314;7.938;2024-02-26T09:59:01;2.87;;;2.67;;
20458;SDS011;10388;52.314;7.938;2024-02-26T10:01:35;3.27;;;2.80;;
20458;SDS011;10388;52.314;7.938;2024-02-26T10:04:08;2.97;;;2.77;;
20458;SDS011;10388;52.314;7.938;2024-02-26T10:06:41;3.07;;;2.80;;
20458;SDS011;10388;52.314;7.938;2024-02-26T10:09:14;3.07;;;2.77;;
20458;SDS011;10388;52.314;7.938;2024-02-26T10:11:46;2.70;;;2.50;;
20458;SDS011;10388;52.314;7.938;2024-02-26T10:14:19;2.97;;;2.67;;
20458;SDS011;10388;52.314;7.938;2024-02-26T10:16:50;2.97;;;2.77;;
20458;SDS011;10388;52.314;7.938;2024-02-26T10:19:27;2.73;;;2.53;;
20458;SDS011;10388;52.314;7.938;2024-02-26T10:21:59;2.47;;;2.27;;
20458;SDS011;10388;52.314;7.938;2024-02-26T10:24:31;3.80;;;2.70;;
20458;SDS011;10388;52.314;7.938;2024-02-26T10:27:02;2.53;;;2.33;;
20458;SDS011;10388;52.314;7.938;2024-02-26T10:29:34;2.40;;;2.20;;
20458;SDS011;10388;52.314;7.938;2024-02-26T10:32:05;2.20;;;2.03;;
20458;SDS011;10388;52.314;7.938;2024-02-26T10:34:35;2.37;;;2.17;;
20458;SDS011;10388;52.314;7.938;2024-02-26T10:37:10;2.30;;;2.10;;
20458;SDS011;10388;52.314;7.938;2024-02-26T10:39:46;2.40;;;2.20;;
20458;SDS011;10388;52.314;7.938;2024-02-26T10:42:17;2.50;;;2.30;;
20458;SDS011;10388;52.314;7.938;2024-02-26T10:44:49;3.57;;;2.00;;
20458;SDS011;10388;52.314;7.938;2024-02-26T10:47:20;3.40;;;2.10;;
20458;SDS011;10388;52.314;7.938;2024-02-26T10:49:51;2.20;;;2.00;;
20458;SDS011;10388;52.314;7.938;2024-02-26T10:52:22;2.33;;;2.13;;
20458;SDS011;10388;52.314;7.938;2024-02-26T10:54:56;2.40;;;2.20;;
20458;SDS011;10388;52.314;7.938;2024-02-26T10:57:46;2.70;;;2.40;;
20458;SDS011;10388;52.314;7.938;2024-02-26T11:00:20;2.77;;;2.57;;
20458;SDS011;10388;52.314;7.938;2024-02-26T11:02:51;2.50;;;2.30;;
20458;SDS011;10388;52.314;7.938;2024-02-26T11:05:23;2.33;;;2.10;;
20458;SDS011;10388;52.314;7.938;2024-02-26T11:07:54;4.63;;;2.67;;
20458;SDS011;10388;52.314;7.938;2024-02-26T11:10:27;2.43;;;2.23;;
20458;SDS011;10388;52.314;7.938;2024-02-26T11:13:00;2.47;;;2.27;;
20458;SDS011;10388;52.314;7.938;2024-02-26T11:15:32;2.90;;;2.40;;
20458;SDS011;10388;52.314;7.938;2024-02-26T11:18:03;2.43;;;2.23;;
20458;SDS011;10388;52.314;7.938;2024-02-26T11:20:38;2.47;;;2.27;;
20458;SDS011;10388;52.314;7.938;2024-02-26T11:23:10;2.67;;;2.20;;
20458;SDS011;10388;52.314;7.938;2024-02-26T11:25:40;4.33;;;2.50;;
20458;SDS011;10388;52.314;7.938;2024-02-26T11:28:12;2.33;;;2.13;;
20458;SDS011;10388;52.314;7.938;2024-02-26T11:30:47;3.13;;;2.23;;
20458;SDS011;10388;52.314;7.938;2024-02-26T11:33:19;4.20;;;2.60;;
20458;SDS011;10388;52.314;7.938;2024-02-26T11:35:50;2.70;;;2.50;;
20458;SDS011;10388;52.314;7.938;2024-02-26T11:38:21;3.00;;;2.63;;
20458;SDS011;10388;52.314;7.938;2024-02-26T11:40:53;2.70;;;2.50;;
20458;SDS011;10388;52.314;7.938;2024-02-26T11:46:29;2.30;;;2.00;;
20458;SDS011;10388;52.314;7.938;2024-02-26T11:49:01;2.87;;;2.43;;
20458;SDS011;10388;52.314;7.938;2024-02-26T11:51:34;2.90;;;2.40;;
20458;SDS011;10388;52.314;7.938;2024-02-26T11:54:05;2.27;;;2.07;;
20458;SDS011;10388;52.314;7.938;2024-02-26T11:56:35;2.37;;;2.17;;
20458;SDS011;10388;52.314;7.938;2024-02-26T11:59:10;2.50;;;2.30;;
20458;SDS011;10388;52.314;7.938;2024-02-26T12:01:46;3.10;;;2.00;;
20458;SDS011;10388;52.314;7.938;2024-02-26T12:04:21;2.70;;;2.50;;
20458;SDS011;10388;52.314;7.938;2024-02-26T12:06:56;2.40;;;2.10;;
20458;SDS011;10388;52.314;7.938;2024-02-26T12:09:33;2.20;;;2.00;;
20458;SDS011;10388;52.314;7.938;2024-02-26T12:12:05;2.10;;;1.90;;
20458;SDS011;10388;52.314;7.938;2024-02-26T12:14:40;2.80;;;2.50;;
20458;SDS011;10388;52.314;7.938;2024-02-26T12:17:20;2.67;;;2.27;;
20458;SDS011;10388;52.314;7.938;2024-02-26T12:19:55;2.50;;;2.00;;
20458;SDS011;10388;52.314;7.938;2024-02-26T12:22:39;2.50;;;2.27;;
20458;SDS011;10388;52.314;7.938;2024-02-26T12:25:10;3.20;;;2.27;;
20458;SDS011;10388;52.314;7.938;2024-02-26T12:27:41;2.73;;;2.30;;
20458;SDS011;10388;52.314;7.938;2024-02-26T12:30:12;2.30;;;2.10;;
20458;SDS011;10388;52.314;7.938;2024-02-26T12:32:42;2.20;;;2.00;;
20458;SDS011;10388;52.314;7.938;2024-02-26T12:35:13;3.20;;;2.00;;
20458;SDS011;10388;52.314;7.938;2024-02-26T12:37:44;2.37;;;2.17;;
20458;SDS011;10388;52.314;7.938;2024-02-26T12:40:16;2.37;;;2.17;;
20458;SDS011;10388;52.314;7.938;2024-02-26T12:42:47;2.23;;;2.03;;
20458;SDS011;10388;52.314;7.938;2024-02-26T12:45:19;2.50;;;2.30;;
20458;SDS011;10388;52.314;7.938;2024-02-26T12:47:50;2.30;;;2.10;;
20458;SDS011;10388;52.314;7.938;2024-02-26T12:50:21;3.30;;;2.90;;
20458;SDS011;10388;52.314;7.938;2024-02-26T12:52:51;3.20;;;2.50;;
20458;SDS011;10388;52.314;7.938;2024-02-26T12:55:23;3.00;;;2.70;;
20458;SDS011;10388;52.314;7.938;2024-02-26T12:57:54;2.57;;;2.37;;
20458;SDS011;10388;52.314;7.938;2024-02-26T13:00:26;3.33;;;2.93;;
20458;SDS011;10388;52.314;7.938;2024-02-26T13:02:59;4.20;;;2.97;;
20458;SDS011;10388;52.314;7.938;2024-02-26T13:05:30;3.67;;;3.03;;
20458;SDS011;10388;52.314;7.938;2024-02-26T13:08:01;3.20;;;2.90;;
20458;SDS011;10388;52.314;7.938;2024-02-26T13:10:32;5.77;;;3.27;;
20458;SDS011;10388;52.314;7.938;2024-02-26T13:13:04;4.07;;;3.23;;
20458;SDS011;10388;52.314;7.938;2024-02-26T13:15:35;3.93;;;3.30;;
20458;SDS011;10388;52.314;7.938;2024-02-26T13:18:13;3.30;;;3.00;;
20458;SDS011;10388;52.314;7.938;2024-02-26T13:20:44;3.57;;;3.20;;
20458;SDS011;10388;52.314;7.938;2024-02-26T13:23:15;3.93;;;3.07;;
20458;SDS011;10388;52.314;7.938;2024-02-26T13:25:45;3.77;;;3.03;;
20458;SDS011;10388;52.314;7.938;2024-02-26T13:28:17;3.20;;;2.90;;
20458;SDS011;10388;52.314;7.938;2024-02-26T13:30:54;3.17;;;2.87;;
20458;SDS011;10388;52.314;7.938;2024-02-26T13:33:30;3.37;;;3.07;;
20458;SDS011;10388;52.314;7.938;2024-02-26T13:36:01;3.50;;;3.17;;
20458;SDS011;10388;52.314;7.938;2024-02-26T13:38:31;4.63;;;3.30;;
20458;SDS011;10388;52.314;7.938;2024-02-26T13:41:04;4.07;;;3.50;;
20458;SDS011;10388;52.314;7.938;2024-02-26T13:43:35;3.83;;;3.40;;
20458;SDS011;10388;52.314;7.938;2024-02-26T13:46:05;4.07;;;3.67;;
20458;SDS011;10388;52.314;7.938;2024-02-26T13:48:37;4.70;;;3.13;;
20458;SDS011;10388;52.314;7.938;2024-02-26T13:51:07;5.47;;;3.10;;
20458;SDS011;10388;52.314;7.938;2024-02-26T13:53:38;4.30;;;3.60;;
20458;SDS011;10388;52.314;7.938;2024-02-26T13:56:09;3.30;;;3.00;;
20458;SDS011;10388;52.314;7.938;2024-02-26T13:58:40;3.53;;;3.00;;
20458;SDS011;10388;52.314;7.938;2024-02-26T14:01:11;4.87;;;3.27;;
20458;SDS011;10388;52.314;7.938;2024-02-26T14:03:41;3.20;;;2.90;;
20458;SDS011;10388;52.314;7.938;2024-02-26T14:06:12;3.33;;;3.00;;
20458;SDS011;10388;52.314;7.938;2024-02-26T14:08:42;5.40;;;3.23;;
20458;SDS011;10388;52.314;7.938;2024-02-26T14:11:13;3.30;;;3.00;;
20458;SDS011;10388;52.314;7.938;2024-02-26T14:13:44;4.30;;;3.33;;
20458;SDS011;10388;52.314;7.938;2024-02-26T14:16:16;2.83;;;2.53;;
20458;SDS011;10388;52.314;7.938;2024-02-26T14:18:47;3.77;;;2.90;;
20458;SDS011;10388;52.314;7.938;2024-02-26T14:21:18;3.27;;;2.97;;
20458;SDS011;10388;52.314;7.938;2024-02-26T14:23:48;4.50;;;3.10;;
20458;SDS011;10388;52.314;7.938;2024-02-26T14:26:19;3.40;;;3.10;;
20458;SDS011;10388;52.314;7.938;2024-02-26T14:28:50;2.67;;;2.47;;
20458;SDS011;10388;52.314;7.938;2024-02-26T14:31:20;4.07;;;2.97;;
20458;SDS011;10388;52.314;7.938;2024-02-26T14:33:51;4.07;;;3.40;;
20458;SDS011;10388;52.314;7.938;2024-02-26T14:36:23;4.17;;;2.97;;
20458;SDS011;10388;52.314;7.938;2024-02-26T14:38:54;3.50;;;2.93;;
20458;SDS011;10388;52.314;7.938;2024-02-26T14:41:25;5.53;;;2.90;;
20458;SDS011;10388;52.314;7.938;2024-02-26T14:43:55;3.43;;;2.90;;
20458;SDS011;10388;52.314;7.938;2024-02-26T14:46:26;3.77;;;3.07;;
20458;SDS011;10388;52.314;7.938;2024-02-26T14:48:57;3.53;;;2.83;;
20458;SDS011;10388;52.314;7.938;2024-02-26T14:51:28;2.80;;;2.60;;
20458;SDS011;10388;52.314;7.938;2024-02-26T14:53:58;3.00;;;2.70;;
20458;SDS011;10388;52.314;7.938;2024-02-26T14:56:30;3.03;;;2.73;;
20458;SDS011;10388;52.314;7.938;2024-02-26T14:59:01;2.83;;;2.33;;
20458;SDS011;10388;52.314;7.938;2024-02-26T15:01:32;3.57;;;2.87;;
20458;SDS011;10388;52.314;7.938;2024-02-26T15:04:02;3.73;;;3.00;;
20458;SDS011;10388;52.314;7.938;2024-02-26T15:06:33;6.23;;;4.20;;
20458;SDS011;10388;52.314;7.938;2024-02-26T15:09:05;8.60;;;7.10;;
20458;SDS011;10388;52.314;7.938;2024-02-26T15:11:39;7.03;;;4.70;;
20458;SDS011;10388;52.314;7.938;2024-02-26T15:14:10;8.63;;;4.40;;
20458;SDS011;10388;52.314;7.938;2024-02-26T15:16:40;4.87;;;4.03;;
20458;SDS011;10388;52.314;7.938;2024-02-26T15:19:11;5.23;;;4.60;;
20458;SDS011;10388;52.314;7.938;2024-02-26T15:21:43;5.43;;;4.23;;
20458;SDS011;10388;52.314;7.938;2024-02-26T15:24:16;5.23;;;4.30;;
20458;SDS011;10388;52.314;7.938;2024-02-26T15:26:47;6.43;;;4.00;;
20458;SDS011;10388;52.314;7.938;2024-02-26T15:29:18;4.83;;;3.90;;
20458;SDS011;10388;52.314;7.938;2024-02-26T15:31:48;4.47;;;4.07;;
20458;SDS011;10388;52.314;7.938;2024-02-26T15:34:19;7.07;;;4.67;;
20458;SDS011;10388;52.314;7.938;2024-02-26T15:36:50;7.70;;;4.67;;
20458;SDS011;10388;52.314;7.938;2024-02-26T15:39:20;4.97;;;4.20;;
20458;SDS011;10388;52.314;7.938;2024-02-26T15:41:51;5.80;;;4.10;;
20458;SDS011;10388;52.314;7.938;2024-02-26T15:44:21;6.40;;;4.33;;
20458;SDS011;10388;52.314;7.938;2024-02-26T15:46:52;6.17;;;4.60;;
20458;SDS011;10388;52.314;7.938;2024-02-26T15:49:23;4.90;;;4.40;;
20458;SDS011;10388;52.314;7.938;2024-02-26T15:51:54;5.93;;;4.10;;
20458;SDS011;10388;52.314;7.938;2024-02-26T15:54:24;5.47;;;4.70;;
20458;SDS011;10388;52.314;7.938;2024-02-26T15:56:55;6.70;;;5.03;;
20458;SDS011;10388;52.314;7.938;2024-02-26T15:59:25;9.50;;;5.07;;
20458;SDS011;10388;52.314;7.938;2024-02-26T16:01:56;5.33;;;4.50;;